Time;durP1;ratioP1;P1;durP2;ratioP2;P2;SDS_P1;SDS_P2;PMS_P1;PMS_P2;Temp;Humidity;BMP_temperature;BMP_pressure;BME280_temperature;BME280_humidity;BME280_pressure;Samples;Min_cycle;Max_cycle;Signal;HPM_P1;HPM_P2
2024/02/22 00:01:55;;;;;;;4.68;4.28;;;;;;;8.95;100.00;99899.91;5089512;28;20469;-39
2024/02/22 00:04:21;;;;;;;4.93;4.43;;;;;;;8.94;100.00;99895.59;5089848;28;20039;-39
2024/02/22 00:06:46;;;;;;;4.78;4.38;;;;;;;8.99;100.00;99892.16;5080842;28;20365;-39
2024/02/22 00:09:11;;;;;;;4.73;4.23;;;;;;;8.99;100.00;99894.84;5076540;28;20036;-39
2024/02/22 00:11:37;;;;;;;5.72;4.40;;;;;;;8.98;100.00;99877.88;5076202;28;20029;-39
2024/02/22 00:14:02;;;;;;;5.17;4.67;;;;;;;9.00;100.00;99881.13;5076154;28;20039;-39
2024/02/22 00:16:28;;;;;;;4.50;4.20;;;;;;;9.00;100.00;99873.03;5076094;28;20108;-39
2024/02/22 00:18:53;;;;;;;4.33;4.03;;;;;;;9.01;100.00;99865.75;5076654;28;20028;-39
2024/02/22 00:21:19;;;;;;;4.60;4.20;;;;;;;9.01;100.00;99866.56;5076520;28;20263;-39
2024/02/22 00:23:44;;;;;;;4.65;4.25;;;;;;;9.02;100.00;99857.41;5075903;28;20085;-39
2024/02/22 00:26:11;;;;;;;4.83;4.43;;;;;;;9.04;100.00;99854.50;5075674;28;20024;-39
2024/02/22 00:28:37;;;;;;;4.78;4.38;;;;;;;9.04;100.00;99851.81;5075906;28;20029;-39
2024/02/22 00:31:02;;;;;;;4.77;4.23;;;;;;;9.07;100.00;99847.78;5075510;28;20036;-39
2024/02/22 00:33:28;;;;;;;4.35;4.05;;;;;;;9.07;100.00;99850.47;5076061;28;20308;-39
2024/02/22 00:35:53;;;;;;;4.63;4.23;;;;;;;9.02;100.00;99838.53;5075726;28;20372;-39
2024/02/22 00:38:18;;;;;;;10.07;4.50;;;;;;;9.08;100.00;99839.47;5076304;28;20155;-39
2024/02/22 00:40:44;;;;;;;4.77;4.40;;;;;;;9.09;100.00;99835.69;5075315;28;20162;-39
2024/02/22 00:43:09;;;;;;;4.87;4.47;;;;;;;9.02;100.00;99819.66;5075381;28;20262;-39
2024/02/22 00:45:34;;;;;;;5.00;4.60;;;;;;;9.11;100.00;99820.06;5075549;28;20036;-39
2024/02/22 00:48:00;;;;;;;4.63;4.22;;;;;;;9.06;100.00;99817.31;5075808;28;20027;-39
2024/02/22 00:50:26;;;;;;;5.00;4.60;;;;;;;9.12;100.00;99821.69;5076045;28;20051;-39
2024/02/22 00:52:52;;;;;;;4.95;4.55;;;;;;;9.14;100.00;99816.09;5075164;28;20032;-39
2024/02/22 00:55:17;;;;;;;5.43;5.03;;;;;;;9.15;100.00;99817.72;5075588;28;20048;-38
2024/02/22 00:57:43;;;;;;;5.38;4.88;;;;;;;9.17;100.00;99804.78;5075412;28;20032;-39
2024/02/22 01:00:11;;;;;;;5.37;4.87;;;;;;;9.17;100.00;99802.09;5075614;28;20423;-39
2024/02/22 01:02:39;;;;;;;5.50;5.10;;;;;;;9.16;100.00;99800.47;5075216;28;20063;-39
2024/02/22 01:05:04;;;;;;;5.68;5.22;;;;;;;9.20;100.00;99809.69;5075740;28;20032;-39
2024/02/22 01:07:31;;;;;;;5.50;5.03;;;;;;;9.22;100.00;99804.84;5075427;28;20033;-39
2024/02/22 01:09:57;;;;;;;5.40;4.90;;;;;;;9.22;100.00;99800.31;5075105;28;20056;-39
2024/02/22 01:12:22;;;;;;;5.22;4.82;;;;;;;9.23;100.00;99795.72;5075270;28;20111;-39
2024/02/22 01:14:47;;;;;;;5.57;5.07;;;;;;;9.23;100.00;99788.44;5075270;28;20024;-39
2024/02/22 01:17:13;;;;;;;5.50;5.00;;;;;;;9.25;100.00;99793.59;5074425;28;20324;-39
2024/02/22 01:19:38;;;;;;;5.07;4.67;;;;;;;9.25;100.00;99791.69;5074738;28;20461;-39
2024/02/22 01:22:04;;;;;;;4.70;4.30;;;;;;;9.26;100.00;99790.63;5075649;28;20338;-39
2024/02/22 01:24:29;;;;;;;4.65;4.25;;;;;;;9.25;100.00;99774.69;5075329;28;20097;-39
2024/02/22 01:26:55;;;;;;;5.35;4.85;;;;;;;9.31;100.00;99775.59;5075497;28;20414;-39
2024/02/22 01:29:20;;;;;;;4.77;4.33;;;;;;;9.33;100.00;99781.56;5075013;28;20090;-39
2024/02/22 01:31:45;;;;;;;4.70;4.30;;;;;;;9.33;100.00;99782.38;5074658;28;20027;-39
2024/02/22 01:34:11;;;;;;;5.10;4.67;;;;;;;9.35;100.00;99782.94;5075088;28;20366;-39
2024/02/22 01:36:37;;;;;;;4.28;3.90;;;;;;;9.32;100.00;99766.41;5074218;28;20259;-39
2024/02/22 01:39:04;;;;;;;4.63;4.20;;;;;;;9.38;100.00;99768.97;5075076;28;20102;-39
2024/02/22 01:41:29;;;;;;;4.78;4.38;;;;;;;9.38;100.00;99766.25;5074373;28;20024;-39
2024/02/22 01:43:55;;;;;;;4.60;4.30;;;;;;;9.34;100.00;99751.63;5074684;28;20035;-39
2024/02/22 01:46:20;;;;;;;5.07;4.67;;;;;;;9.41;100.00;99760.34;5074643;28;20021;-39
2024/02/22 01:48:46;;;;;;;5.13;4.72;;;;;;;9.43;100.00;99754.72;5075087;28;20282;-40
2024/02/22 01:51:13;;;;;;;5.00;4.60;;;;;;;9.43;100.00;99755.53;5073950;28;20028;-39
2024/02/22 01:53:39;;;;;;;4.85;4.45;;;;;;;9.45;100.00;99750.69;5074483;28;20028;-39
2024/02/22 01:56:05;;;;;;;5.30;4.55;;;;;;;9.44;100.00;99746.38;5074712;28;20059;-39
2024/02/22 01:58:36;;;;;;;5.10;4.70;;;;;;;9.45;100.00;99745.28;5074652;28;20032;-39
2024/02/22 02:01:04;;;;;;;5.38;4.97;;;;;;;9.47;100.00;99743.19;5074350;28;20029;-40
2024/02/22 02:03:30;;;;;;;5.30;4.90;;;;;;;9.46;100.00;99744.22;5074038;28;20039;-40
2024/02/22 02:05:56;;;;;;;5.18;4.68;;;;;;;9.48;100.00;99744.81;5073987;28;20426;-40
2024/02/22 02:08:22;;;;;;;;;;;;;;;9.54;100.00;99743.78;5074158;28;20058;-40
2024/02/22 02:10:47;;;;;;;6.10;5.55;;;;;;;9.51;100.00;99738.88;5074182;28;19908;-40
2024/02/22 02:13:13;;;;;;;5.47;4.93;;;;;;;9.44;100.00;99723.97;5074685;28;20440;-39
2024/02/22 02:15:38;;;;;;;6.03;5.53;;;;;;;9.53;100.00;99730.56;5073449;28;20278;-39
2024/02/22 02:18:04;;;;;;;5.40;4.97;;;;;;;9.45;100.00;99710.22;5074116;28;20021;-39
2024/02/22 02:20:36;;;;;;;5.30;4.80;;;;;;;9.52;100.00;99718.94;5073525;28;20024;-39
2024/02/22 02:23:20;;;;;;;5.40;4.90;;;;;;;9.54;100.00;99721.38;5073545;28;20437;-39
2024/02/22 02:25:46;;;;;;;5.40;4.93;;;;;;;9.54;100.00;99719.50;5074493;28;20062;-39
2024/02/22 02:28:11;;;;;;;5.45;4.95;;;;;;;9.52;100.00;99718.94;5073673;28;20096;-39
2024/02/22 02:30:36;;;;;;;5.13;4.73;;;;;;;9.55;100.00;99717.63;5073466;28;20029;-40
2024/02/22 02:33:02;;;;;;;5.67;5.17;;;;;;;9.55;100.00;99712.22;5073721;28;20032;-45
2024/02/22 02:35:27;;;;;;;5.18;4.72;;;;;;;9.48;100.00;99698.94;5073614;28;20038;-40
2024/02/22 02:37:57;;;;;;;5.32;4.82;;;;;;;9.52;100.00;99705.47;5074086;28;20067;-40
2024/02/22 02:40:23;;;;;;;5.35;4.85;;;;;;;9.54;100.00;99708.72;5074091;28;20036;-39
2024/02/22 02:42:48;;;;;;;5.30;4.90;;;;;;;9.55;100.00;99699.53;5073173;28;20392;-40
2024/02/22 02:45:13;;;;;;;5.67;4.93;;;;;;;9.48;100.00;99677.34;5073539;28;20056;-39
2024/02/22 02:47:39;;;;;;;7.50;6.05;;;;;;;9.55;100.00;99686.03;5073492;28;20047;-40
2024/02/22 02:50:06;;;;;;;6.57;5.67;;;;;;;9.48;100.00;99668.44;5073257;28;20059;-40
2024/02/22 02:52:32;;;;;;;6.68;5.95;;;;;;;9.54;100.00;99676.31;5073350;28;20383;-39
2024/02/22 02:54:57;;;;;;;9.15;6.82;;;;;;;9.56;100.00;99670.66;5073718;28;20049;-39
2024/02/22 02:57:23;;;;;;;9.43;6.63;;;;;;;9.54;100.00;99673.63;5073717;28;20474;-39
2024/02/22 02:59:48;;;;;;;9.07;6.80;;;;;;;9.58;100.00;99670.44;5073650;28;20456;-39
2024/02/22 03:02:17;;;;;;;9.97;7.60;;;;;;;9.58;100.00;99678.53;5073639;28;20270;-39
2024/02/22 03:04:42;;;;;;;9.48;7.53;;;;;;;9.54;100.00;99676.31;5073063;28;20040;-39
2024/02/22 03:07:08;;;;;;;11.07;8.52;;;;;;;9.49;100.00;99662.78;5073266;28;20024;-39
2024/02/22 03:09:33;;;;;;;10.23;8.25;;;;;;;9.57;100.00;99671.50;5073798;28;20056;-39
2024/02/22 03:11:58;;;;;;;13.20;8.87;;;;;;;9.58;100.00;99678.53;5072980;28;20025;-39
2024/02/22 03:14:24;;;;;;;10.23;8.77;;;;;;;9.57;100.00;99671.50;5073150;28;20408;-39
2024/02/22 03:16:49;;;;;;;9.90;9.00;;;;;;;9.60;100.00;99674.50;5073501;28;20032;-39
2024/02/22 03:19:14;;;;;;;9.40;8.50;;;;;;;9.59;100.00;99674.75;5072903;28;20028;-39
2024/02/22 03:21:40;;;;;;;14.40;9.43;;;;;;;9.60;100.00;99660.19;5073657;28;20266;-39
2024/02/22 03:24:07;;;;;;;11.63;9.15;;;;;;;9.54;100.00;99654.72;5073688;28;20028;-39
2024/02/22 03:26:32;;;;;;;11.90;8.98;;;;;;;9.60;100.00;99657.50;5073050;28;20040;-39
2024/02/22 03:28:58;;;;;;;11.27;9.23;;;;;;;9.60;100.00;99652.09;5073451;28;20025;-39
2024/02/22 03:31:23;;;;;;;11.07;9.03;;;;;;;9.60;100.00;99652.91;5073395;28;20024;-39
2024/02/22 03:33:48;;;;;;;10.87;9.60;;;;;;;9.59;100.00;99645.06;5073135;28;20033;-39
2024/02/22 03:36:14;;;;;;;13.97;9.93;;;;;;;9.53;100.00;99644.19;5073199;28;20029;-39
2024/02/22 03:38:39;;;;;;;14.43;9.98;;;;;;;9.58;100.00;99638.84;5072741;28;20461;-39
2024/02/22 03:41:05;;;;;;;13.57;9.60;;;;;;;9.52;100.00;99629.91;5073979;28;20058;-40
2024/02/22 03:43:31;;;;;;;14.75;9.68;;;;;;;9.45;100.00;99614.97;5077019;28;20457;-39
2024/02/22 03:45:56;;;;;;;12.10;9.40;;;;;;;9.55;100.00;99625.84;5077161;28;20033;-39
2024/02/22 03:48:22;;;;;;;16.20;10.35;;;;;;;9.55;100.00;99612.38;5076712;28;20103;-39
2024/02/22 03:50:47;;;;;;;11.50;9.43;;;;;;;9.55;100.00;99626.66;5076562;28;20031;-39
2024/02/22 03:53:15;;;;;;;17.90;9.65;;;;;;;9.56;100.00;99619.38;5076527;28;20118;-39
2024/02/22 03:55:40;;;;;;;15.40;9.85;;;;;;;9.57;100.00;99620.22;5076395;28;20044;-39
2024/02/22 03:58:06;;;;;;;16.05;10.70;;;;;;;9.56;100.00;99611.28;5076788;28;20430;-39
2024/02/22 04:00:33;;;;;;;13.70;9.80;;;;;;;9.55;100.00;99610.47;5076407;28;20017;-39
2024/02/22 04:02:59;;;;;;;12.57;9.18;;;;;;;9.53;100.00;99604.53;5076929;28;20033;-39
2024/02/22 04:05:24;;;;;;;13.32;9.65;;;;;;;9.55;100.00;99607.78;5076854;28;20035;-39
2024/02/22 04:07:50;;;;;;;15.20;9.57;;;;;;;9.54;100.00;99603.47;5076092;28;20033;-39
2024/02/22 04:10:15;;;;;;;13.53;9.23;;;;;;;9.46;100.00;99589.59;5076531;28;20056;-39
2024/02/22 04:12:40;;;;;;;13.60;8.73;;;;;;;9.50;100.00;99605.03;5076479;28;20074;-39
2024/02/22 04:15:06;;;;;;;11.98;8.68;;;;;;;9.52;100.00;99602.91;5076062;28;20055;-40
2024/02/22 04:17:32;;;;;;;14.02;8.65;;;;;;;9.49;100.00;99583.69;5076050;28;20028;-39
2024/02/22 04:19:57;;;;;;;11.80;8.30;;;;;;;9.50;100.00;99585.31;5075796;28;20029;-40
2024/02/22 04:22:24;;;;;;;12.20;8.33;;;;;;;9.49;100.00;99587.22;5075763;28;20032;-39
2024/02/22 04:24:49;;;;;;;13.57;8.73;;;;;;;9.47;100.00;99581.28;5076562;28;20266;-39
2024/02/22 04:27:14;;;;;;;11.77;8.03;;;;;;;9.45;100.00;99575.28;5075974;28;20475;-39
2024/02/22 04:29:40;;;;;;;11.67;7.90;;;;;;;9.47;100.00;99575.06;5076234;28;20020;-39
2024/02/22 04:32:05;;;;;;;12.60;7.80;;;;;;;9.47;100.00;99583.16;5076063;28;20379;-39
2024/02/22 04:34:31;;;;;;;11.18;7.78;;;;;;;9.46;100.00;99579.63;5075997;28;20412;-39
2024/02/22 04:36:56;;;;;;;12.77;7.57;;;;;;;9.46;100.00;99573.41;5075457;28;20028;-39
2024/02/22 04:39:22;;;;;;;11.77;7.10;;;;;;;9.45;100.00;99577.19;5075389;28;20051;-39
2024/02/22 04:41:47;;;;;;;9.97;6.53;;;;;;;9.44;100.00;99570.97;5076141;28;20107;-39
2024/02/22 04:44:13;;;;;;;12.00;6.93;;;;;;;9.43;100.00;99563.94;5075602;28;20468;-40
2024/02/22 04:46:38;;;;;;;10.60;6.70;;;;;;;9.44;100.00;99570.97;5076356;28;20032;-39
2024/02/22 04:49:05;;;;;;;13.15;6.47;;;;;;;9.39;100.00;99568.22;5076394;28;20021;-39
2024/02/22 04:51:31;;;;;;;10.77;6.47;;;;;;;9.36;100.00;99557.13;5075245;28;20024;-39
2024/02/22 04:53:57;;;;;;;12.73;6.25;;;;;;;9.40;100.00;99567.16;5074848;28;20067;-39
2024/02/22 04:56:22;;;;;;;12.25;6.68;;;;;;;9.38;100.00;99555.00;5075506;28;20411;-39
2024/02/22 04:58:48;;;;;;;12.83;6.33;;;;;;;9.37;100.00;99547.94;5076240;28;20111;-40
2024/02/22 05:01:13;;;;;;;11.30;5.57;;;;;;;9.37;100.00;99548.78;5075018;28;20024;-39
2024/02/22 05:03:39;;;;;;;11.10;5.03;;;;;;;9.35;100.00;99545.50;5075349;28;20312;-39
2024/02/22 05:06:05;;;;;;;;;;;;;;;9.41;100.00;99540.97;5075647;28;20530;-39
2024/02/22 05:08:30;;;;;;;11.77;4.95;;;;;;;9.27;100.00;99525.22;5075173;28;20030;-39
2024/02/22 05:10:55;;;;;;;8.17;4.80;;;;;;;9.33;100.00;99539.56;5075164;28;20025;-39
2024/02/22 05:13:21;;;;;;;10.93;5.33;;;;;;;9.33;100.00;99536.06;5075357;28;20025;-39
2024/02/22 05:15:46;;;;;;;9.70;5.15;;;;;;;9.29;100.00;99531.16;5074179;28;20113;-40
2024/02/22 05:18:12;;;;;;;10.88;4.85;;;;;;;9.28;100.00;99521.44;5074711;28;20033;-40
2024/02/22 05:20:38;;;;;;;9.38;4.93;;;;;;;9.21;100.00;99510.03;5074817;28;20028;-39
2024/02/22 05:23:06;;;;;;;10.68;5.15;;;;;;;9.27;100.00;99521.69;5075456;28;20059;-39
2024/02/22 05:25:31;;;;;;;12.45;5.28;;;;;;;9.25;100.00;99523.84;5075379;28;20036;-39
2024/02/22 05:27:57;;;;;;;8.90;4.25;;;;;;;9.24;100.00;99525.72;5075605;28;20029;-39
2024/02/22 05:30:23;;;;;;;8.60;5.03;;;;;;;9.23;100.00;99525.97;5074452;28;20473;-39
2024/02/22 05:32:48;;;;;;;13.00;4.82;;;;;;;9.14;100.00;99509.44;5074637;28;20028;-39
2024/02/22 05:35:14;;;;;;;10.70;4.32;;;;;;;9.20;100.00;99519.19;5074299;28;20025;-39
2024/02/22 05:37:39;;;;;;;6.85;4.20;;;;;;;9.05;100.00;99489.38;5074460;28;20027;-39
2024/02/22 05:40:08;;;;;;;10.33;4.20;;;;;;;9.14;100.00;99506.72;5075353;28;20060;-39
2024/02/22 05:42:33;;;;;;;13.68;4.32;;;;;;;9.07;100.00;99491.81;5074911;28;20485;-39
2024/02/22 05:44:59;;;;;;;9.52;4.07;;;;;;;9.07;100.00;99495.31;5074657;28;20032;-39
2024/02/22 05:47:25;;;;;;;9.77;4.18;;;;;;;9.02;100.00;99488.00;5074324;28;20457;-40
2024/02/22 05:49:50;;;;;;;11.63;4.50;;;;;;;9.05;100.00;99493.97;5074359;28;20472;-39
2024/02/22 05:52:16;;;;;;;11.30;5.13;;;;;;;8.99;100.00;99490.41;5074233;28;20392;-40
2024/02/22 05:54:41;;;;;;;13.53;4.40;;;;;;;8.96;100.00;99494.41;5074286;28;20404;-40
2024/02/22 05:57:07;;;;;;;10.10;5.07;;;;;;;8.88;100.00;99480.56;5075025;28;20274;-39
2024/02/22 05:59:32;;;;;;;10.50;4.63;;;;;;;8.92;100.00;99479.78;5074798;28;20028;-40
2024/02/22 06:01:57;;;;;;;8.13;4.60;;;;;;;8.80;100.00;99456.75;5074151;28;20081;-40
2024/02/22 06:04:23;;;;;;;10.03;4.67;;;;;;;8.88;100.00;99473.31;5073636;28;20052;-39
2024/02/22 06:06:48;;;;;;;8.70;4.80;;;;;;;8.90;100.00;99467.66;5073686;28;20381;-40
2024/02/22 06:09:13;;;;;;;7.40;4.43;;;;;;;8.85;100.00;99452.22;5074341;28;20354;-40
2024/02/22 06:11:39;;;;;;;12.00;5.00;;;;;;;8.84;100.00;99442.53;5073666;28;20273;-40
2024/02/22 06:14:05;;;;;;;8.48;4.63;;;;;;;8.82;100.00;99441.94;5074413;28;20020;-40
2024/02/22 06:16:30;;;;;;;9.93;4.72;;;;;;;8.60;100.00;99416.94;5073562;28;20032;-40
2024/02/22 06:18:56;;;;;;;6.77;4.80;;;;;;;8.65;100.00;99427.75;5074222;28;20060;-39
2024/02/22 06:21:21;;;;;;;11.18;5.45;;;;;;;8.71;100.00;99437.53;5074289;28;20031;-39
2024/02/22 06:23:50;;;;;;;9.13;4.85;;;;;;;8.62;100.00;99420.97;5074610;28;20064;-40
2024/02/22 06:26:15;;;;;;;11.75;5.75;;;;;;;8.65;100.00;99444.75;5073108;28;20078;-40
2024/02/22 06:28:44;;;;;;;7.88;5.57;;;;;;;8.65;100.00;99439.34;5073237;28;20103;-39
2024/02/22 06:31:09;;;;;;;8.32;5.00;;;;;;;8.65;100.00;99441.22;5073685;28;20460;-39
2024/02/22 06:33:35;;;;;;;8.63;5.30;;;;;;;8.59;100.00;99437.66;5073652;28;20029;-39
2024/02/22 06:36:00;;;;;;;7.78;5.03;;;;;;;8.57;100.00;99437.09;5073762;28;20024;-39
2024/02/22 06:38:26;;;;;;;10.73;5.25;;;;;;;8.56;100.00;99440.03;5073585;28;20033;-39
2024/02/22 06:40:51;;;;;;;8.47;4.83;;;;;;;8.54;100.00;99434.06;5073745;28;20032;-39
2024/02/22 06:43:17;;;;;;;8.13;4.95;;;;;;;8.50;100.00;99433.78;5073566;28;20025;-40
2024/02/22 06:45:43;;;;;;;;;;;;;;;8.58;100.00;99432.50;5073782;28;20089;-39
2024/02/22 06:48:09;;;;;;;8.35;5.03;;;;;;;8.48;100.00;99428.63;5074059;28;19913;-39
2024/02/22 06:50:35;;;;;;;9.85;5.70;;;;;;;8.49;100.00;99424.91;5073696;28;20077;-39
2024/02/22 06:53:01;;;;;;;9.27;5.15;;;;;;;8.44;100.00;99399.75;5073699;28;20177;-39
2024/02/22 06:55:27;;;;;;;9.25;5.50;;;;;;;8.47;100.00;99410.03;5073769;28;20380;-39
2024/02/22 06:57:52;;;;;;;;;;;;;;;8.58;100.00;99406.38;5074075;28;20078;-39
2024/02/22 07:00:18;;;;;;;8.80;5.25;;;;;;;8.55;100.00;99400.72;5073599;28;20002;-40
2024/02/22 07:02:44;;;;;;;9.75;5.50;;;;;;;8.52;100.00;99385.84;5073892;28;20035;-39
2024/02/22 07:05:09;;;;;;;6.65;4.93;;;;;;;8.55;100.00;99389.94;5073054;28;20468;-39
2024/02/22 07:07:35;;;;;;;10.52;6.03;;;;;;;8.47;100.00;99365.03;5074064;28;20048;-39
2024/02/22 07:10:01;;;;;;;9.48;5.57;;;;;;;8.42;100.00;99359.59;5073558;28;20028;-39
2024/02/22 07:12:26;;;;;;;8.48;5.28;;;;;;;8.59;100.00;99370.31;5073965;28;20025;-39
2024/02/22 07:14:51;;;;;;;8.20;5.37;;;;;;;8.59;100.00;99370.31;5073490;28;20032;-39
2024/02/22 07:17:17;;;;;;;8.53;5.40;;;;;;;8.61;100.00;99365.47;5075983;28;20134;-39
2024/02/22 07:19:43;;;;;;;9.73;5.87;;;;;;;8.63;100.00;99360.63;5077240;28;20059;-39
2024/02/22 07:22:09;;;;;;;6.50;5.15;;;;;;;8.62;100.00;99352.81;5077375;28;20433;-39
2024/02/22 07:24:34;;;;;;;7.03;5.47;;;;;;;8.66;100.00;99345.84;5077076;28;20116;-39
2024/02/22 07:27:00;;;;;;;6.47;5.17;;;;;;;8.68;100.00;99346.38;5077300;28;20035;-39
2024/02/22 07:29:27;;;;;;;;;;;;;;;8.75;100.00;99345.13;5077669;28;20804;-39
2024/02/22 07:31:53;;;;;;;6.82;4.75;;;;;;;8.69;100.00;99346.16;5076935;28;19912;-39
2024/02/22 07:34:18;;;;;;;6.20;5.13;;;;;;;8.71;100.00;99351.28;5077339;28;20329;-39
2024/02/22 07:36:44;;;;;;;7.03;5.00;;;;;;;8.70;100.00;99344.28;5076831;28;20032;-39
2024/02/22 07:39:09;;;;;;;7.15;5.20;;;;;;;8.72;100.00;99350.22;5077069;28;20029;-39
2024/02/22 07:41:35;;;;;;;6.80;4.97;;;;;;;8.73;100.00;99341.03;5077264;28;20028;-39
2024/02/22 07:44:00;;;;;;;7.00;5.25;;;;;;;8.67;100.00;99326.72;5076687;28;20516;-39
2024/02/22 07:46:27;;;;;;;6.20;5.07;;;;;;;8.76;100.00;99345.94;5077165;28;20028;-40
2024/02/22 07:48:52;;;;;;;5.65;4.95;;;;;;;8.79;100.00;99336.53;5076598;28;20032;-39
2024/02/22 07:51:18;;;;;;;7.85;5.28;;;;;;;8.80;100.00;99330.88;5076540;28;20024;-39
2024/02/22 07:53:45;;;;;;;5.68;4.55;;;;;;;8.83;100.00;99326.84;5076730;28;20025;-39
2024/02/22 07:56:11;;;;;;;7.72;4.90;;;;;;;8.84;100.00;99317.72;5056873;28;20112;-39
2024/02/22 07:58:47;;;;;;;6.05;4.97;;;;;;;8.89;100.00;99310.47;5056414;28;20035;-39
2024/02/22 08:01:14;;;;;;;5.88;5.05;;;;;;;8.76;100.00;99286.66;5056387;28;20397;-39
2024/02/22 08:03:40;;;;;;;5.32;4.60;;;;;;;8.91;100.00;99302.94;5056598;28;20068;-40
2024/02/22 08:06:06;;;;;;;;;;;;;;;9.00;100.00;99296.00;5056676;28;20037;-39
2024/02/22 08:08:31;;;;;;;6.78;4.20;;;;;;;8.87;100.00;99271.38;5057105;28;19953;-39
2024/02/22 08:10:56;;;;;;;6.43;4.30;;;;;;;8.97;100.00;99263.34;5056105;28;20080;-40
2024/02/22 08:13:22;;;;;;;6.37;4.40;;;;;;;9.00;100.00;99252.06;5056703;28;20029;-39
2024/02/22 08:15:49;;;;;;;3.72;3.42;;;;;;;9.02;100.00;99245.31;5055706;28;20035;-40
2024/02/22 08:18:14;;;;;;;4.07;3.63;;;;;;;9.09;100.00;99241.59;5056066;28;20055;-39
2024/02/22 08:20:40;;;;;;;3.97;3.45;;;;;;;9.14;100.00;99249.72;5056511;28;20033;-39
2024/02/22 08:23:08;;;;;;;4.93;3.42;;;;;;;9.11;100.00;99215.19;5055727;28;20029;-39
2024/02/22 08:25:37;;;;;;;4.70;3.42;;;;;;;9.17;100.00;99208.72;5055865;28;20036;-39
2024/02/22 08:28:04;;;;;;;3.72;3.10;;;;;;;9.26;100.00;99204.47;5055927;28;20484;-39
2024/02/22 08:30:29;;;;;;;3.35;3.05;;;;;;;9.29;100.00;99201.25;5056194;28;20411;-38
2024/02/22 08:32:55;;;;;;;4.77;3.30;;;;;;;9.32;100.00;99200.75;5055890;28;20029;-39
2024/02/22 08:35:20;;;;;;;4.17;3.77;;;;;;;9.30;100.00;99189.38;5056207;28;20376;-39
2024/02/22 08:37:45;;;;;;;4.10;3.70;;;;;;;9.40;100.00;99196.72;5055766;28;20029;-39
2024/02/22 08:40:12;;;;;;;4.73;4.33;;;;;;;9.44;100.00;99187.03;5056056;28;20037;-39
2024/02/22 08:42:38;;;;;;;5.43;4.93;;;;;;;9.48;100.00;99188.13;5055528;28;20037;-39
2024/02/22 08:45:04;;;;;;;4.90;4.50;;;;;;;9.47;100.00;99173.81;5055550;28;20526;-39
2024/02/22 08:47:31;;;;;;;4.80;4.40;;;;;;;9.48;100.00;99170.06;5056047;28;20017;-39
2024/02/22 08:49:58;;;;;;;4.90;4.50;;;;;;;9.51;100.00;99166.00;5055778;28;20025;-39
2024/02/22 08:52:24;;;;;;;7.03;4.40;;;;;;;9.52;100.00;99165.75;5055771;28;20457;-39
2024/02/22 08:54:49;;;;;;;4.45;4.05;;;;;;;9.55;100.00;99159.00;5065237;28;20087;-39
2024/02/22 08:57:14;;;;;;;4.20;3.87;;;;;;;9.58;100.00;99150.38;5076206;28;20029;-39
2024/02/22 08:59:41;;;;;;;4.10;3.70;;;;;;;9.60;100.00;99153.63;5075321;28;20104;-39
2024/02/22 09:02:06;;;;;;;4.10;3.80;;;;;;;9.63;100.00;99157.69;5075696;28;20271;-40
2024/02/22 09:04:31;;;;;;;4.07;3.70;;;;;;;9.61;100.00;99149.84;5075794;28;20040;-39
2024/02/22 09:06:57;;;;;;;4.20;2.63;;;;;;;9.55;100.00;99108.53;5075977;28;20024;-39
2024/02/22 09:09:22;;;;;;;2.90;2.67;;;;;;;9.55;100.00;99113.94;5074904;28;20028;-39
2024/02/22 09:11:48;;;;;;;3.60;3.30;;;;;;;9.64;100.00;99116.94;5074835;28;20277;-39
2024/02/22 09:14:13;;;;;;;3.90;2.70;;;;;;;9.68;100.00;99106.41;5075494;28;20024;-39
2024/02/22 09:16:39;;;;;;;3.17;2.65;;;;;;;9.70;100.00;99096.16;5074941;28;20510;-39
2024/02/22 09:19:05;;;;;;;2.50;2.30;;;;;;;9.67;100.00;99092.13;5075493;28;20113;-39
2024/02/22 09:21:30;;;;;;;2.60;2.40;;;;;;;9.77;100.00;99083.22;5074931;28;20105;-39
2024/02/22 09:23:56;;;;;;;2.70;2.50;;;;;;;9.78;100.00;99085.63;5074680;28;20036;-39
2024/02/22 09:26:22;;;;;;;2.23;2.03;;;;;;;9.78;100.00;99074.03;5074814;28;20074;-39
2024/02/22 09:28:47;;;;;;;2.60;2.35;;;;;;;9.82;100.00;99083.22;5074736;28;20038;-39
2024/02/22 09:31:13;;;;;;;2.80;2.60;;;;;;;9.81;100.00;99060.00;5074681;28;20115;-39
2024/02/22 09:33:40;;;;;;;2.60;2.40;;;;;;;9.84;100.00;99067.56;5074963;28;20028;-39
2024/02/22 09:36:08;;;;;;;2.75;2.10;;;;;;;9.86;100.00;99059.19;5074416;28;20107;-39
2024/02/22 09:38:34;;;;;;;2.25;2.05;;;;;;;9.87;100.00;99026.53;5073807;28;20031;-39
2024/02/22 09:41:00;;;;;;;2.38;2.17;;;;;;;9.90;100.00;99009.78;5074378;28;20020;-39
2024/02/22 09:43:25;;;;;;;2.85;2.55;;;;;;;9.92;100.00;99010.31;5075289;28;20020;-39
2024/02/22 09:45:51;;;;;;;2.30;2.10;;;;;;;9.94;100.00;99018.16;5074442;28;20056;-39
2024/02/22 09:48:18;;;;;;;2.22;2.00;;;;;;;9.96;100.00;99010.59;5073245;28;20028;-39
2024/02/22 09:50:43;;;;;;;2.28;1.73;;;;;;;9.97;100.00;99006.81;5074238;28;20055;-39
2024/02/22 09:53:10;;;;;;;2.00;1.48;;;;;;;9.95;100.00;99004.38;5074851;28;20052;-39
2024/02/22 09:55:36;;;;;;;1.92;1.75;;;;;;;9.97;100.00;98987.91;5073841;28;20048;-39
2024/02/22 09:58:02;;;;;;;2.22;1.85;;;;;;;9.99;100.00;98966.84;5074223;28;20460;-39
2024/02/22 10:00:27;;;;;;;1.85;1.75;;;;;;;9.96;100.00;98964.69;5073835;28;20059;-39
2024/02/22 10:02:53;;;;;;;2.10;1.80;;;;;;;10.01;100.00;98954.69;5074416;28;20036;-39
2024/02/22 10:05:19;;;;;;;2.10;1.90;;;;;;;9.98;100.00;98940.94;5074022;28;20090;-38
2024/02/22 10:07:45;;;;;;;2.67;1.52;;;;;;;10.11;100.00;98936.84;5074803;28;20115;-39
2024/02/22 10:10:11;;;;;;;1.83;1.63;;;;;;;10.13;100.00;98927.38;5074511;28;20052;-39
2024/02/22 10:12:43;;;;;;;1.70;1.38;;;;;;;10.21;100.00;98944.94;5073644;28;20036;-40
2024/02/22 10:15:18;;;;;;;2.38;1.20;;;;;;;10.31;100.00;98931.41;5074621;28;20086;-39
2024/02/22 10:17:43;;;;;;;1.65;1.30;;;;;;;10.38;100.00;98921.09;5074121;28;20025;-39
2024/02/22 10:20:12;;;;;;;1.30;1.20;;;;;;;10.51;100.00;98922.41;5073590;28;20047;-39
2024/02/22 10:22:38;;;;;;;1.67;1.00;;;;;;;10.55;100.00;98924.28;5074274;28;20354;-40
2024/02/22 10:25:12;;;;;;;1.30;1.20;;;;;;;10.54;100.00;98930.78;5074084;28;20066;-39
2024/02/22 10:27:39;;;;;;;1.10;1.00;;;;;;;10.58;100.00;98937.22;5073661;28;20060;-39
2024/02/22 10:30:09;;;;;;;1.85;1.23;;;;;;;10.58;100.00;98914.81;5074502;28;20028;-40
2024/02/22 10:32:39;;;;;;;0.82;0.77;;;;;;;10.66;100.00;98916.94;5073875;28;20043;-40
2024/02/22 10:35:05;;;;;;;1.33;0.50;;;;;;;10.64;100.00;98902.06;5073270;28;20063;-39
2024/02/22 10:37:32;;;;;;;2.08;0.60;;;;;;;10.66;100.00;98894.50;5073648;28;20441;-40
2024/02/22 10:39:59;;;;;;;0.63;0.52;;;;;;;10.65;100.00;98877.47;5073927;28;20021;-39
2024/02/22 10:42:25;;;;;;;1.55;0.70;;;;;;;10.70;100.00;98873.94;5073561;28;20033;-40
2024/02/22 10:44:51;;;;;;;0.95;0.70;;;;;;;10.66;100.00;98862.06;5074066;28;20032;-40
2024/02/22 10:47:18;;;;;;;1.63;0.50;;;;;;;10.79;100.00;98867.66;5073930;28;20027;-40
2024/02/22 10:49:46;;;;;;;0.80;0.70;;;;;;;10.75;100.00;98830.66;5072987;28;20022;-40
2024/02/22 10:52:15;;;;;;;2.55;0.50;;;;;;;10.83;100.00;98843.56;5073316;28;20127;-40
2024/02/22 10:54:45;;;;;;;1.08;0.57;;;;;;;10.85;100.00;98836.00;5073988;28;20076;-40
2024/02/22 10:57:13;;;;;;;0.77;0.50;;;;;;;10.86;100.00;98821.38;5073872;28;20055;-40
2024/02/22 10:59:40;;;;;;;0.57;0.50;;;;;;;10.87;100.00;98820.28;5073656;28;20075;-40
2024/02/22 11:02:07;;;;;;;0.50;0.47;;;;;;;10.76;100.00;98786.31;5073345;28;20021;-40
2024/02/22 11:04:33;;;;;;;0.68;0.50;;;;;;;10.81;100.00;98788.97;5072926;28;20454;-40
2024/02/22 11:07:07;;;;;;;0.80;0.50;;;;;;;10.77;100.00;98779.81;5073554;28;20112;-40
2024/02/22 11:09:41;;;;;;;1.00;0.52;;;;;;;10.81;100.00;98794.38;5073556;28;20032;-40
2024/02/22 11:12:10;;;;;;;0.60;0.50;;;;;;;10.80;100.00;98796.28;5073733;28;20032;-39
2024/02/22 11:14:40;;;;;;;0.93;0.50;;;;;;;10.79;100.00;98796.56;5073102;28;20460;-40
2024/02/22 11:17:26;;;;;;;1.40;0.60;;;;;;;10.72;100.00;98769.03;5071968;28;20116;-40
2024/02/22 11:19:52;;;;;;;1.02;0.60;;;;;;;10.78;100.00;98767.91;5072896;28;20033;-40
2024/02/22 11:22:18;;;;;;;0.52;0.50;;;;;;;10.79;100.00;98761.44;5073362;28;20483;-39
2024/02/22 11:24:44;;;;;;;1.40;0.70;;;;;;;10.77;100.00;98750.06;5073427;28;20029;-39
2024/02/22 11:27:16;;;;;;;0.95;0.60;;;;;;;10.77;100.00;98748.16;5073648;28;20365;-39